sensor_id;sensor_type;location;lat;lon;timestamp;P1;durP1;ratioP1;P2;durP2;ratioP2
5454;SDS011;2750;49.050;9.250;2022-08-20T00:00:30;7.07;;;4.53;;
5454;SDS011;2750;49.050;9.250;2022-08-20T00:05:35;6.07;;;4.13;;
5454;SDS011;2750;49.050;9.250;2022-08-20T00:10:41;6.30;;;4.30;;
5454;SDS011;2750;49.050;9.250;2022-08-20T00:15:44;4.53;;;4.13;;
5454;SDS011;2750;49.050;9.250;2022-08-20T00:20:47;4.90;;;4.40;;
5454;SDS011;2750;49.050;9.250;2022-08-20T00:25:53;4.57;;;4.13;;
5454;SDS011;2750;49.050;9.250;2022-08-20T00:30:54;4.57;;;3.67;;
5454;SDS011;2750;49.050;9.250;2022-08-20T00:35:56;3.77;;;3.47;;
5454;SDS011;2750;49.050;9.250;2022-08-20T00:41:09;3.10;;;2.90;;
5454;SDS011;2750;49.050;9.250;2022-08-20T00:46:14;5.07;;;3.00;;
5454;SDS011;2750;49.050;9.250;2022-08-20T00:51:22;4.17;;;2.80;;
5454;SDS011;2750;49.050;9.250;2022-08-20T00:56:28;2.87;;;2.67;;
5454;SDS011;2750;49.050;9.250;2022-08-20T01:01:32;3.00;;;2.70;;
5454;SDS011;2750;49.050;9.250;2022-08-20T01:06:34;4.20;;;3.30;;
5454;SDS011;2750;49.050;9.250;2022-08-20T01:11:36;3.37;;;2.70;;
5454;SDS011;2750;49.050;9.250;2022-08-20T01:16:38;2.77;;;2.57;;
5454;SDS011;2750;49.050;9.250;2022-08-20T01:21:40;2.83;;;2.63;;
5454;SDS011;2750;49.050;9.250;2022-08-20T01:26:43;3.27;;;2.97;;
5454;SDS011;2750;49.050;9.250;2022-08-20T01:31:47;3.20;;;2.90;;
5454;SDS011;2750;49.050;9.250;2022-08-20T01:36:50;4.27;;;2.83;;
5454;SDS011;2750;49.050;9.250;2022-08-20T01:42:00;3.03;;;2.73;;
5454;SDS011;2750;49.050;9.250;2022-08-20T01:47:08;3.03;;;2.73;;
5454;SDS011;2750;49.050;9.250;2022-08-20T01:52:14;4.50;;;2.73;;
5454;SDS011;2750;49.050;9.250;2022-08-20T01:57:26;3.40;;;3.10;;
5454;SDS011;2750;49.050;9.250;2022-08-20T02:02:28;3.80;;;2.90;;
5454;SDS011;2750;49.050;9.250;2022-08-20T02:07:29;3.27;;;3.07;;
5454;SDS011;2750;49.050;9.250;2022-08-20T02:12:32;3.33;;;3.03;;
5454;SDS011;2750;49.050;9.250;2022-08-20T02:17:34;3.60;;;3.30;;
5454;SDS011;2750;49.050;9.250;2022-08-20T02:22:39;3.50;;;3.00;;
5454;SDS011;2750;49.050;9.250;2022-08-20T02:27:45;3.00;;;2.70;;
5454;SDS011;2750;49.050;9.250;2022-08-20T02:32:48;3.13;;;2.93;;
5454;SDS011;2750;49.050;9.250;2022-08-20T02:37:50;4.80;;;3.17;;
5454;SDS011;2750;49.050;9.250;2022-08-20T02:42:53;3.37;;;3.07;;
5454;SDS011;2750;49.050;9.250;2022-08-20T02:47:55;3.53;;;3.23;;
5454;SDS011;2750;49.050;9.250;2022-08-20T02:52:57;3.40;;;2.90;;
5454;SDS011;2750;49.050;9.250;2022-08-20T02:58:00;3.80;;;3.30;;
5454;SDS011;2750;49.050;9.250;2022-08-20T03:03:02;5.63;;;4.30;;
5454;SDS011;2750;49.050;9.250;2022-08-20T03:08:04;7.40;;;4.37;;
5454;SDS011;2750;49.050;9.250;2022-08-20T03:13:08;5.40;;;4.20;;
5454;SDS011;2750;49.050;9.250;2022-08-20T03:18:11;4.20;;;3.80;;
5454;SDS011;2750;49.050;9.250;2022-08-20T03:23:14;3.37;;;3.07;;
5454;SDS011;2750;49.050;9.250;2022-08-20T03:28:18;4.50;;;3.00;;
5454;SDS011;2750;49.050;9.250;2022-08-20T03:33:19;4.00;;;3.60;;
5454;SDS011;2750;49.050;9.250;2022-08-20T03:38:22;4.53;;;3.97;;
5454;SDS011;2750;49.050;9.250;2022-08-20T03:43:26;5.20;;;4.17;;
5454;SDS011;2750;49.050;9.250;2022-08-20T03:48:28;4.00;;;3.60;;
5454;SDS011;2750;49.050;9.250;2022-08-20T03:53:30;4.70;;;3.37;;
5454;SDS011;2750;49.050;9.250;2022-08-20T03:58:33;3.40;;;3.07;;
5454;SDS011;2750;49.050;9.250;2022-08-20T04:03:35;3.00;;;2.80;;
5454;SDS011;2750;49.050;9.250;2022-08-20T04:08:36;4.47;;;3.40;;
5454;SDS011;2750;49.050;9.250;2022-08-20T04:13:42;3.60;;;3.30;;
5454;SDS011;2750;49.050;9.250;2022-08-20T04:18:43;3.20;;;3.00;;
5454;SDS011;2750;49.050;9.250;2022-08-20T04:23:47;4.30;;;3.93;;
5454;SDS011;2750;49.050;9.250;2022-08-20T04:28:50;4.53;;;4.13;;
5454;SDS011;2750;49.050;9.250;2022-08-20T04:33:51;4.30;;;3.90;;
5454;SDS011;2750;49.050;9.250;2022-08-20T04:38:53;3.87;;;3.53;;
5454;SDS011;2750;49.050;9.250;2022-08-20T04:43:56;3.10;;;2.90;;
5454;SDS011;2750;49.050;9.250;2022-08-20T04:48:58;3.50;;;3.10;;
5454;SDS011;2750;49.050;9.250;2022-08-20T04:54:02;4.37;;;3.20;;
5454;SDS011;2750;49.050;9.250;2022-08-20T04:59:05;5.27;;;4.23;;
5454;SDS011;2750;49.050;9.250;2022-08-20T05:04:07;3.80;;;3.50;;
5454;SDS011;2750;49.050;9.250;2022-08-20T05:09:09;5.37;;;4.70;;
5454;SDS011;2750;49.050;9.250;2022-08-20T05:14:11;5.60;;;4.70;;
5454;SDS011;2750;49.050;9.250;2022-08-20T05:19:14;4.57;;;4.17;;
5454;SDS011;2750;49.050;9.250;2022-08-20T05:24:16;4.77;;;4.37;;
5454;SDS011;2750;49.050;9.250;2022-08-20T05:29:19;5.50;;;4.13;;
5454;SDS011;2750;49.050;9.250;2022-08-20T05:34:21;4.53;;;4.10;;
5454;SDS011;2750;49.050;9.250;2022-08-20T05:39:24;5.87;;;4.00;;
5454;SDS011;2750;49.050;9.250;2022-08-20T05:44:27;4.37;;;3.97;;
5454;SDS011;2750;49.050;9.250;2022-08-20T05:49:29;5.97;;;3.70;;
5454;SDS011;2750;49.050;9.250;2022-08-20T05:54:31;5.07;;;4.67;;
5454;SDS011;2750;49.050;9.250;2022-08-20T05:59:34;3.50;;;3.20;;
5454;SDS011;2750;49.050;9.250;2022-08-20T06:04:38;4.87;;;4.37;;
5454;SDS011;2750;49.050;9.250;2022-08-20T06:09:40;4.70;;;4.30;;
5454;SDS011;2750;49.050;9.250;2022-08-20T06:14:42;4.20;;;3.80;;
5454;SDS011;2750;49.050;9.250;2022-08-20T06:19:46;4.17;;;3.77;;
5454;SDS011;2750;49.050;9.250;2022-08-20T06:24:47;4.10;;;3.60;;
5454;SDS011;2750;49.050;9.250;2022-08-20T06:29:50;6.13;;;4.43;;
5454;SDS011;2750;49.050;9.250;2022-08-20T06:34:52;5.83;;;3.83;;
5454;SDS011;2750;49.050;9.250;2022-08-20T06:39:54;4.37;;;3.97;;
5454;SDS011;2750;49.050;9.250;2022-08-20T06:44:57;4.60;;;4.20;;
5454;SDS011;2750;49.050;9.250;2022-08-20T06:49:59;4.53;;;4.13;;
5454;SDS011;2750;49.050;9.250;2022-08-20T06:55:01;4.50;;;4.10;;
5454;SDS011;2750;49.050;9.250;2022-08-20T07:00:05;4.57;;;4.17;;
5454;SDS011;2750;49.050;9.250;2022-08-20T07:05:11;4.57;;;4.17;;
5454;SDS011;2750;49.050;9.250;2022-08-20T07:10:13;4.70;;;4.30;;
5454;SDS011;2750;49.050;9.250;2022-08-20T07:15:17;5.53;;;5.07;;
5454;SDS011;2750;49.050;9.250;2022-08-20T07:20:20;4.80;;;3.80;;
5454;SDS011;2750;49.050;9.250;2022-08-20T07:25:22;3.97;;;3.67;;
5454;SDS011;2750;49.050;9.250;2022-08-20T07:30:26;4.90;;;4.30;;
5454;SDS011;2750;49.050;9.250;2022-08-20T07:35:45;4.35;;;3.95;;
5454;SDS011;2750;49.050;9.250;2022-08-20T07:40:47;4.28;;;3.85;;
5454;SDS011;2750;49.050;9.250;2022-08-20T07:45:51;3.90;;;3.60;;
5454;SDS011;2750;49.050;9.250;2022-08-20T07:50:54;3.80;;;3.50;;
5454;SDS011;2750;49.050;9.250;2022-08-20T07:55:56;7.07;;;3.63;;
5454;SDS011;2750;49.050;9.250;2022-08-20T08:01:00;4.82;;;4.43;;
5454;SDS011;2750;49.050;9.250;2022-08-20T08:06:02;4.28;;;3.35;;
5454;SDS011;2750;49.050;9.250;2022-08-20T08:11:04;7.95;;;4.18;;
5454;SDS011;2750;49.050;9.250;2022-08-20T08:16:08;4.60;;;4.20;;
5454;SDS011;2750;49.050;9.250;2022-08-20T08:21:10;6.90;;;4.75;;
5454;SDS011;2750;49.050;9.250;2022-08-20T08:26:13;4.80;;;4.38;;
5454;SDS011;2750;49.050;9.250;2022-08-20T08:31:17;4.55;;;4.15;;
5454;SDS011;2750;49.050;9.250;2022-08-20T08:36:18;4.85;;;4.43;;
5454;SDS011;2750;49.050;9.250;2022-08-20T08:41:20;4.85;;;4.30;;
5454;SDS011;2750;49.050;9.250;2022-08-20T08:46:33;4.05;;;3.65;;
5454;SDS011;2750;49.050;9.250;2022-08-20T08:51:41;6.93;;;4.10;;
5454;SDS011;2750;49.050;9.250;2022-08-20T08:56:45;4.05;;;3.75;;
5454;SDS011;2750;49.050;9.250;2022-08-20T09:01:49;2.92;;;2.72;;
5454;SDS011;2750;49.050;9.250;2022-08-20T09:06:53;4.32;;;4.00;;
5454;SDS011;2750;49.050;9.250;2022-08-20T09:11:56;4.88;;;4.45;;
5454;SDS011;2750;49.050;9.250;2022-08-20T09:17:05;4.93;;;4.25;;
5454;SDS011;2750;49.050;9.250;2022-08-20T09:22:07;5.75;;;5.25;;
5454;SDS011;2750;49.050;9.250;2022-08-20T09:27:12;8.73;;;8.07;;
5454;SDS011;2750;49.050;9.250;2022-08-20T09:32:17;7.65;;;7.05;;
5454;SDS011;2750;49.050;9.250;2022-08-20T09:37:21;7.80;;;7.22;;
5454;SDS011;2750;49.050;9.250;2022-08-20T09:42:24;6.57;;;6.07;;
5454;SDS011;2750;49.050;9.250;2022-08-20T09:47:28;5.20;;;4.70;;
5454;SDS011;2750;49.050;9.250;2022-08-20T09:52:30;4.35;;;4.05;;
5454;SDS011;2750;49.050;9.250;2022-08-20T09:57:33;5.10;;;4.43;;
5454;SDS011;2750;49.050;9.250;2022-08-20T10:02:36;5.68;;;5.18;;
5454;SDS011;2750;49.050;9.250;2022-08-20T10:07:39;6.43;;;5.82;;
5454;SDS011;2750;49.050;9.250;2022-08-20T10:12:41;5.82;;;5.32;;
5454;SDS011;2750;49.050;9.250;2022-08-20T10:17:44;4.68;;;4.35;;
5454;SDS011;2750;49.050;9.250;2022-08-20T10:22:45;6.32;;;5.50;;
5454;SDS011;2750;49.050;9.250;2022-08-20T10:27:47;5.72;;;5.07;;
5454;SDS011;2750;49.050;9.250;2022-08-20T10:32:50;5.60;;;4.88;;
5454;SDS011;2750;49.050;9.250;2022-08-20T10:37:51;5.60;;;5.10;;
5454;SDS011;2750;49.050;9.250;2022-08-20T10:42:53;5.90;;;5.40;;
5454;SDS011;2750;49.050;9.250;2022-08-20T10:47:58;5.78;;;5.28;;
5454;SDS011;2750;49.050;9.250;2022-08-20T10:53:01;6.40;;;5.80;;
5454;SDS011;2750;49.050;9.250;2022-08-20T10:58:03;4.15;;;3.75;;
5454;SDS011;2750;49.050;9.250;2022-08-20T11:03:07;3.15;;;2.95;;
5454;SDS011;2750;49.050;9.250;2022-08-20T11:08:08;3.58;;;2.53;;
5454;SDS011;2750;49.050;9.250;2022-08-20T11:13:10;3.42;;;3.20;;
5454;SDS011;2750;49.050;9.250;2022-08-20T11:18:13;3.45;;;3.10;;
5454;SDS011;2750;49.050;9.250;2022-08-20T11:23:14;3.00;;;2.80;;
5454;SDS011;2750;49.050;9.250;2022-08-20T11:28:16;4.40;;;4.00;;
5454;SDS011;2750;49.050;9.250;2022-08-20T11:33:19;4.78;;;4.20;;
5454;SDS011;2750;49.050;9.250;2022-08-20T11:38:20;3.70;;;3.50;;
5454;SDS011;2750;49.050;9.250;2022-08-20T11:43:22;3.33;;;3.03;;
5454;SDS011;2750;49.050;9.250;2022-08-20T11:48:24;2.40;;;2.20;;
5454;SDS011;2750;49.050;9.250;2022-08-20T11:53:26;3.47;;;3.17;;
5454;SDS011;2750;49.050;9.250;2022-08-20T11:58:27;3.60;;;3.30;;
5454;SDS011;2750;49.050;9.250;2022-08-20T12:03:30;3.90;;;3.60;;
5454;SDS011;2750;49.050;9.250;2022-08-20T12:08:32;3.53;;;3.22;;
5454;SDS011;2750;49.050;9.250;2022-08-20T12:13:34;3.70;;;3.40;;
5454;SDS011;2750;49.050;9.250;2022-08-20T12:18:38;3.95;;;3.47;;
5454;SDS011;2750;49.050;9.250;2022-08-20T12:23:40;3.33;;;3.05;;
5454;SDS011;2750;49.050;9.250;2022-08-20T12:28:42;3.40;;;3.10;;
5454;SDS011;2750;49.050;9.250;2022-08-20T12:33:44;3.22;;;3.03;;
5454;SDS011;2750;49.050;9.250;2022-08-20T12:38:46;3.70;;;3.40;;
5454;SDS011;2750;49.050;9.250;2022-08-20T12:43:47;2.85;;;2.65;;
5454;SDS011;2750;49.050;9.250;2022-08-20T12:48:50;3.97;;;2.78;;
5454;SDS011;2750;49.050;9.250;2022-08-20T12:53:52;2.08;;;1.98;;
5454;SDS011;2750;49.050;9.250;2022-08-20T12:58:53;3.15;;;2.40;;
5454;SDS011;2750;49.050;9.250;2022-08-20T13:03:56;2.70;;;2.50;;
5454;SDS011;2750;49.050;9.250;2022-08-20T13:08:58;2.53;;;2.33;;
5454;SDS011;2750;49.050;9.250;2022-08-20T13:13:59;2.70;;;2.50;;
5454;SDS011;2750;49.050;9.250;2022-08-20T13:19:02;2.60;;;2.40;;
5454;SDS011;2750;49.050;9.250;2022-08-20T13:24:05;6.53;;;3.00;;
5454;SDS011;2750;49.050;9.250;2022-08-20T13:29:08;3.72;;;2.17;;
5454;SDS011;2750;49.050;9.250;2022-08-20T13:34:11;2.45;;;1.45;;
5454;SDS011;2750;49.050;9.250;2022-08-20T13:39:12;1.60;;;1.50;;
5454;SDS011;2750;49.050;9.250;2022-08-20T13:44:14;2.58;;;2.38;;
5454;SDS011;2750;49.050;9.250;2022-08-20T13:49:17;2.90;;;2.40;;
5454;SDS011;2750;49.050;9.250;2022-08-20T13:54:18;2.25;;;2.05;;
5454;SDS011;2750;49.050;9.250;2022-08-20T13:59:20;2.20;;;1.55;;
5454;SDS011;2750;49.050;9.250;2022-08-20T14:04:23;2.05;;;1.65;;
5454;SDS011;2750;49.050;9.250;2022-08-20T14:09:25;1.50;;;1.40;;
5454;SDS011;2750;49.050;9.250;2022-08-20T14:14:27;1.58;;;1.27;;
5454;SDS011;2750;49.050;9.250;2022-08-20T14:19:30;1.75;;;1.65;;
5454;SDS011;2750;49.050;9.250;2022-08-20T14:24:31;1.67;;;1.58;;
5454;SDS011;2750;49.050;9.250;2022-08-20T14:29:35;1.80;;;1.70;;
5454;SDS011;2750;49.050;9.250;2022-08-20T14:34:39;2.63;;;1.60;;
5454;SDS011;2750;49.050;9.250;2022-08-20T14:39:42;15.20;;;2.53;;
5454;SDS011;2750;49.050;9.250;2022-08-20T14:44:45;3.78;;;2.20;;
5454;SDS011;2750;49.050;9.250;2022-08-20T14:49:48;2.38;;;2.00;;
5454;SDS011;2750;49.050;9.250;2022-08-20T14:54:51;3.72;;;2.10;;
5454;SDS011;2750;49.050;9.250;2022-08-20T14:59:53;10.52;;;2.50;;
5454;SDS011;2750;49.050;9.250;2022-08-20T15:04:56;3.35;;;2.08;;
5454;SDS011;2750;49.050;9.250;2022-08-20T15:09:57;3.38;;;1.90;;
5454;SDS011;2750;49.050;9.250;2022-08-20T15:15:00;3.85;;;2.03;;
5454;SDS011;2750;49.050;9.250;2022-08-20T15:20:05;6.72;;;1.95;;
5454;SDS011;2750;49.050;9.250;2022-08-20T15:25:11;2.15;;;1.90;;
5454;SDS011;2750;49.050;9.250;2022-08-20T15:30:15;1.70;;;1.60;;
5454;SDS011;2750;49.050;9.250;2022-08-20T15:35:20;1.80;;;1.63;;
5454;SDS011;2750;49.050;9.250;2022-08-20T15:40:23;1.70;;;1.60;;
5454;SDS011;2750;49.050;9.250;2022-08-20T15:45:26;2.15;;;1.85;;
5454;SDS011;2750;49.050;9.250;2022-08-20T15:50:43;2.28;;;2.08;;
5454;SDS011;2750;49.050;9.250;2022-08-20T15:55:57;3.13;;;1.88;;
5454;SDS011;2750;49.050;9.250;2022-08-20T16:01:05;2.50;;;2.15;;
5454;SDS011;2750;49.050;9.250;2022-08-20T16:06:16;2.47;;;2.28;;
5454;SDS011;2750;49.050;9.250;2022-08-20T16:11:31;2.47;;;2.28;;
5454;SDS011;2750;49.050;9.250;2022-08-20T16:16:45;2.50;;;2.30;;
5454;SDS011;2750;49.050;9.250;2022-08-20T16:21:50;2.60;;;2.25;;
5454;SDS011;2750;49.050;9.250;2022-08-20T16:26:59;1.92;;;1.83;;
5454;SDS011;2750;49.050;9.250;2022-08-20T16:32:08;2.03;;;1.83;;
5454;SDS011;2750;49.050;9.250;2022-08-20T16:37:16;2.30;;;2.10;;
5454;SDS011;2750;49.050;9.250;2022-08-20T16:42:25;2.58;;;1.85;;
5454;SDS011;2750;49.050;9.250;2022-08-20T16:47:33;5.97;;;3.72;;
5454;SDS011;2750;49.050;9.250;2022-08-20T16:52:38;5.38;;;2.30;;
5454;SDS011;2750;49.050;9.250;2022-08-20T16:57:43;4.10;;;2.20;;
5454;SDS011;2750;49.050;9.250;2022-08-20T17:02:49;3.47;;;2.15;;
5454;SDS011;2750;49.050;9.250;2022-08-20T17:07:57;3.28;;;2.17;;
5454;SDS011;2750;49.050;9.250;2022-08-20T17:13:03;4.38;;;2.08;;
5454;SDS011;2750;49.050;9.250;2022-08-20T17:18:19;2.25;;;2.00;;
5454;SDS011;2750;49.050;9.250;2022-08-20T17:23:23;3.08;;;1.90;;
5454;SDS011;2750;49.050;9.250;2022-08-20T17:28:25;2.45;;;2.20;;
5454;SDS011;2750;49.050;9.250;2022-08-20T17:33:28;3.33;;;2.20;;
5454;SDS011;2750;49.050;9.250;2022-08-20T17:38:33;2.95;;;1.95;;
5454;SDS011;2750;49.050;9.250;2022-08-20T17:43:40;2.53;;;2.20;;
5454;SDS011;2750;49.050;9.250;2022-08-20T17:48:44;3.17;;;2.20;;
5454;SDS011;2750;49.050;9.250;2022-08-20T17:53:51;2.65;;;2.20;;
5454;SDS011;2750;49.050;9.250;2022-08-20T17:58:58;3.17;;;2.47;;
5454;SDS011;2750;49.050;9.250;2022-08-20T18:04:05;3.08;;;2.00;;
5454;SDS011;2750;49.050;9.250;2022-08-20T18:09:10;1.95;;;1.73;;
5454;SDS011;2750;49.050;9.250;2022-08-20T18:14:17;4.15;;;1.83;;
5454;SDS011;2750;49.050;9.250;2022-08-20T18:19:48;4.72;;;2.22;;
5454;SDS011;2750;49.050;9.250;2022-08-20T18:25:08;7.70;;;2.70;;
5454;SDS011;2750;49.050;9.250;2022-08-20T18:30:19;2.50;;;2.30;;
5454;SDS011;2750;49.050;9.250;2022-08-20T18:35:31;2.42;;;1.65;;
5454;SDS011;2750;49.050;9.250;2022-08-20T18:40:35;4.40;;;2.33;;
5454;SDS011;2750;49.050;9.250;2022-08-20T18:45:37;4.00;;;1.83;;
5454;SDS011;2750;49.050;9.250;2022-08-20T18:50:42;3.45;;;2.30;;
5454;SDS011;2750;49.050;9.250;2022-08-20T18:56:00;4.25;;;2.30;;
5454;SDS011;2750;49.050;9.250;2022-08-20T19:01:06;2.80;;;2.10;;
5454;SDS011;2750;49.050;9.250;2022-08-20T19:06:17;3.58;;;2.30;;
5454;SDS011;2750;49.050;9.250;2022-08-20T19:11:39;4.60;;;2.20;;
5454;SDS011;2750;49.050;9.250;2022-08-20T19:16:50;2.40;;;2.10;;
5454;SDS011;2750;49.050;9.250;2022-08-20T19:21:55;3.30;;;2.20;;
5454;SDS011;2750;49.050;9.250;2022-08-20T19:27:03;3.83;;;2.30;;
5454;SDS011;2750;49.050;9.250;2022-08-20T19:32:08;3.53;;;2.10;;
5454;SDS011;2750;49.050;9.250;2022-08-20T19:37:18;3.50;;;1.93;;
5454;SDS011;2750;49.050;9.250;2022-08-20T19:42:23;2.77;;;2.00;;
5454;SDS011;2750;49.050;9.250;2022-08-20T19:47:28;3.87;;;2.60;;
5454;SDS011;2750;49.050;9.250;2022-08-20T19:52:34;6.07;;;2.30;;
5454;SDS011;2750;49.050;9.250;2022-08-20T19:57:51;2.60;;;1.87;;
5454;SDS011;2750;49.050;9.250;2022-08-20T20:03:06;2.77;;;2.10;;
5454;SDS011;2750;49.050;9.250;2022-08-20T20:08:08;2.43;;;2.23;;
5454;SDS011;2750;49.050;9.250;2022-08-20T20:13:13;2.93;;;2.50;;
5454;SDS011;2750;49.050;9.250;2022-08-20T20:18:20;3.60;;;2.40;;
5454;SDS011;2750;49.050;9.250;2022-08-20T20:23:25;4.90;;;2.70;;
5454;SDS011;2750;49.050;9.250;2022-08-20T20:28:31;2.90;;;2.70;;
5454;SDS011;2750;49.050;9.250;2022-08-20T20:33:43;4.10;;;2.73;;
5454;SDS011;2750;49.050;9.250;2022-08-20T20:38:54;3.37;;;2.70;;
5454;SDS011;2750;49.050;9.250;2022-08-20T20:44:00;5.13;;;2.90;;
5454;SDS011;2750;49.050;9.250;2022-08-20T20:49:10;3.60;;;2.67;;
5454;SDS011;2750;49.050;9.250;2022-08-20T20:54:20;4.57;;;3.60;;
5454;SDS011;2750;49.050;9.250;2022-08-20T20:59:27;3.07;;;2.77;;
5454;SDS011;2750;49.050;9.250;2022-08-20T21:04:30;3.93;;;2.70;;
5454;SDS011;2750;49.050;9.250;2022-08-20T21:09:32;5.13;;;3.23;;
5454;SDS011;2750;49.050;9.250;2022-08-20T21:14:37;3.43;;;3.00;;
5454;SDS011;2750;49.050;9.250;2022-08-20T21:19:39;4.67;;;3.27;;
5454;SDS011;2750;49.050;9.250;2022-08-20T21:24:41;4.90;;;3.50;;
5454;SDS011;2750;49.050;9.250;2022-08-20T21:29:44;4.50;;;3.27;;
5454;SDS011;2750;49.050;9.250;2022-08-20T21:34:46;4.53;;;3.53;;
5454;SDS011;2750;49.050;9.250;2022-08-20T21:39:47;5.23;;;3.57;;
5454;SDS011;2750;49.050;9.250;2022-08-20T21:44:50;4.97;;;3.30;;
5454;SDS011;2750;49.050;9.250;2022-08-20T21:49:52;3.90;;;3.60;;
5454;SDS011;2750;49.050;9.250;2022-08-20T21:54:53;6.63;;;3.07;;
5454;SDS011;2750;49.050;9.250;2022-08-20T21:59:56;3.50;;;3.20;;
5454;SDS011;2750;49.050;9.250;2022-08-20T22:05:00;3.67;;;3.37;;
5454;SDS011;2750;49.050;9.250;2022-08-20T22:10:01;5.13;;;3.60;;
5454;SDS011;2750;49.050;9.250;2022-08-20T22:15:06;3.17;;;2.70;;
5454;SDS011;2750;49.050;9.250;2022-08-20T22:20:08;4.20;;;3.80;;
5454;SDS011;2750;49.050;9.250;2022-08-20T22:25:10;3.30;;;3.00;;
5454;SDS011;2750;49.050;9.250;2022-08-20T22:30:13;4.23;;;3.83;;
5454;SDS011;2750;49.050;9.250;2022-08-20T22:35:15;4.20;;;3.80;;
5454;SDS011;2750;49.050;9.250;2022-08-20T22:40:16;7.03;;;4.00;;
5454;SDS011;2750;49.050;9.250;2022-08-20T22:45:19;5.63;;;3.73;;
5454;SDS011;2750;49.050;9.250;2022-08-20T22:50:21;4.20;;;3.77;;
5454;SDS011;2750;49.050;9.250;2022-08-20T22:55:24;4.37;;;3.87;;
5454;SDS011;2750;49.050;9.250;2022-08-20T23:00:26;4.50;;;3.57;;
5454;SDS011;2750;49.050;9.250;2022-08-20T23:05:29;5.17;;;4.20;;
5454;SDS011;2750;49.050;9.250;2022-08-20T23:10:32;4.63;;;3.70;;
5454;SDS011;2750;49.050;9.250;2022-08-20T23:15:37;5.87;;;3.77;;
5454;SDS011;2750;49.050;9.250;2022-08-20T23:20:40;5.00;;;3.10;;
5454;SDS011;2750;49.050;9.250;2022-08-20T23:25:44;6.53;;;3.90;;
5454;SDS011;2750;49.050;9.250;2022-08-20T23:30:47;3.50;;;3.00;;
5454;SDS011;2750;49.050;9.250;2022-08-20T23:35:48;4.60;;;3.80;;
5454;SDS011;2750;49.050;9.250;2022-08-20T23:40:50;5.63;;;3.90;;
5454;SDS011;2750;49.050;9.250;2022-08-20T23:45:53;5.43;;;3.40;;
5454;SDS011;2750;49.050;9.250;2022-08-20T23:50:59;5.50;;;3.97;;
5454;SDS011;2750;49.050;9.250;2022-08-20T23:56:00;3.37;;;3.00;;
